createdAt,value
2023-04-28T00:00:02.168Z,10.99
2023-04-28T00:02:29.702Z,11.11
2023-04-28T00:04:59.081Z,11.23
2023-04-28T00:07:26.784Z,11.37
2023-04-28T00:09:54.269Z,11.08
2023-04-28T00:12:21.721Z,11.11
2023-04-28T00:14:49.190Z,11.33
2023-04-28T00:17:17.166Z,11.41
2023-04-28T00:19:44.960Z,11.57
2023-04-28T00:22:15.101Z,11.60
2023-04-28T00:24:42.794Z,11.53
2023-04-28T00:27:10.312Z,11.42
2023-04-28T00:29:37.815Z,11.12
2023-04-28T00:32:05.498Z,11.20
2023-04-28T00:34:34.208Z,11.28
2023-04-28T00:37:01.690Z,11.22
2023-04-28T00:39:30.619Z,11.19
2023-04-28T00:41:58.166Z,11.17
2023-04-28T00:44:25.618Z,11.02
2023-04-28T00:46:53.162Z,11.19
2023-04-28T00:49:20.963Z,11.28
2023-04-28T00:51:48.455Z,11.23
2023-04-28T00:54:16.129Z,11.35
2023-04-28T00:56:45.642Z,11.39
2023-04-28T00:59:13.102Z,11.49
2023-04-28T01:01:40.659Z,11.56
2023-04-28T01:04:08.522Z,11.50
2023-04-28T01:06:38.166Z,11.22
2023-04-28T01:09:06.267Z,11.15
2023-04-28T01:11:33.786Z,11.39
2023-04-28T01:14:02.560Z,11.46
2023-04-28T01:16:32.478Z,11.51
2023-04-28T01:19:01.409Z,11.52
2023-04-28T01:21:30.362Z,11.50
2023-04-28T01:23:59.245Z,11.49
2023-04-28T01:26:27.223Z,11.30
2023-04-28T01:28:54.754Z,11.28
2023-04-28T01:31:22.295Z,11.36
2023-04-28T01:33:49.790Z,11.49
2023-04-28T01:36:17.259Z,11.45
2023-04-28T01:38:44.739Z,11.60
2023-04-28T01:41:13.574Z,11.63
2023-04-28T01:43:41.040Z,11.57
2023-04-28T01:46:08.567Z,11.45
2023-04-28T01:48:36.170Z,11.33
2023-04-28T01:51:03.710Z,11.36
2023-04-28T01:53:31.201Z,11.58
2023-04-28T01:55:59.203Z,11.56
2023-04-28T01:58:28.011Z,11.39
2023-04-28T02:00:55.480Z,11.49
2023-04-28T02:03:22.992Z,11.27
2023-04-28T02:05:50.730Z,11.33
2023-04-28T02:08:18.434Z,11.34
2023-04-28T02:10:45.984Z,11.09
2023-04-28T02:13:13.511Z,11.10
2023-04-28T02:15:43.380Z,10.98
2023-04-28T02:18:11.054Z,11.00
2023-04-28T02:20:38.569Z,10.97
2023-04-28T02:23:06.143Z,11.30
2023-04-28T02:25:33.676Z,10.95
2023-04-28T02:28:01.142Z,10.94
2023-04-28T02:30:28.663Z,10.85
2023-04-28T02:32:57.508Z,10.70
2023-04-28T02:35:25.046Z,10.80
2023-04-28T02:37:52.629Z,10.74
2023-04-28T02:40:20.591Z,10.68
2023-04-28T02:42:48.113Z,10.69
2023-04-28T02:45:15.785Z,10.69
2023-04-28T02:47:43.286Z,10.96
2023-04-28T02:50:12.348Z,10.74
2023-04-28T02:52:39.815Z,10.89
2023-04-28T02:55:08.122Z,10.78
2023-04-28T02:57:35.593Z,10.86
2023-04-28T03:00:03.142Z,10.74
2023-04-28T03:02:31.257Z,10.81
2023-04-28T03:04:58.921Z,10.66
2023-04-28T03:07:27.857Z,10.52
2023-04-28T03:09:55.433Z,10.19
2023-04-28T03:12:22.933Z,10.37
2023-04-28T03:14:50.392Z,10.27
2023-04-28T03:17:18.084Z,10.62
2023-04-28T03:19:45.540Z,10.51
2023-04-28T03:22:13.013Z,10.36
2023-04-28T03:24:41.805Z,10.25
2023-04-28T03:27:09.257Z,10.37
2023-04-28T03:29:36.727Z,10.66
2023-04-28T03:32:04.187Z,10.84
2023-04-28T03:34:31.723Z,10.90
2023-04-28T03:36:59.294Z,10.74
2023-04-28T03:39:26.762Z,10.94
2023-04-28T03:41:55.630Z,11.17
2023-04-28T03:44:23.455Z,11.07
2023-04-28T03:46:51.083Z,10.73
2023-04-28T03:49:18.539Z,10.29
2023-04-28T03:51:46.640Z,10.13
2023-04-28T03:54:14.274Z,10.37
2023-04-28T03:56:41.906Z,10.09
2023-04-28T03:59:11.718Z,9.90
2023-04-28T04:01:39.173Z,9.85
2023-04-28T04:04:07.098Z,9.85
2023-04-28T04:06:34.891Z,9.83
2023-04-28T04:09:02.702Z,9.84
2023-04-28T04:11:30.164Z,9.90
2023-04-28T04:13:57.605Z,10.27
2023-04-28T04:16:26.808Z,10.50
2023-04-28T04:18:54.462Z,10.75
2023-04-28T04:21:22.040Z,10.44
2023-04-28T04:23:49.526Z,10.60
2023-04-28T04:26:16.996Z,10.94
2023-04-28T04:28:44.481Z,10.87
2023-04-28T04:31:12.375Z,10.89
2023-04-28T04:33:41.233Z,10.70
2023-04-28T04:36:09.146Z,10.64
2023-04-28T04:38:36.628Z,10.53
2023-04-28T04:41:04.128Z,10.62
2023-04-28T04:43:31.592Z,10.61
2023-04-28T04:45:59.288Z,10.75
2023-04-28T04:48:26.776Z,10.74
2023-04-28T04:50:55.573Z,10.95
2023-04-28T04:53:23.168Z,10.87
2023-04-28T04:55:50.678Z,10.53
2023-04-28T04:58:18.300Z,10.31
2023-04-28T05:00:45.798Z,10.43
2023-04-28T05:03:13.525Z,10.51
2023-04-28T05:05:41.365Z,10.68
2023-04-28T05:08:10.534Z,10.80
2023-04-28T05:10:38.093Z,10.93
2023-04-28T05:13:05.676Z,11.36
2023-04-28T05:15:33.539Z,11.40
2023-04-28T05:18:01.198Z,11.10
2023-04-28T05:20:28.681Z,11.00
2023-04-28T05:22:56.111Z,10.82
2023-04-28T05:25:24.893Z,10.60
2023-04-28T05:27:52.381Z,10.46
2023-04-28T05:30:19.978Z,10.43
2023-04-28T05:32:47.495Z,10.64
2023-04-28T05:35:15.197Z,10.56
2023-04-28T05:37:43.555Z,10.83
2023-04-28T05:40:11.777Z,11.23
2023-04-28T05:42:40.629Z,11.66
2023-04-28T05:45:09.352Z,11.43
2023-04-28T05:47:36.956Z,11.24
2023-04-28T05:50:04.762Z,11.11
2023-04-28T05:52:32.218Z,11.02
2023-04-28T05:54:59.680Z,10.89
2023-04-28T05:57:27.310Z,10.91
2023-04-28T05:59:56.160Z,11.00
2023-04-28T06:02:24.537Z,11.01
2023-04-28T06:04:53.335Z,11.08
2023-04-28T06:07:21.513Z,11.26
2023-04-28T06:09:49.773Z,11.45
2023-04-28T06:12:17.230Z,11.47
2023-04-28T06:14:44.680Z,11.56
2023-04-28T06:17:13.494Z,11.45
2023-04-28T06:19:40.935Z,11.38
2023-04-28T06:22:08.390Z,11.20
2023-04-28T06:24:35.898Z,11.03
2023-04-28T06:27:03.668Z,11.26
2023-04-28T06:29:31.121Z,11.07
2023-04-28T06:31:58.848Z,11.08
2023-04-28T06:34:28.882Z,11.07
2023-04-28T06:36:56.608Z,11.00
2023-04-28T06:39:24.065Z,11.22
2023-04-28T06:41:51.530Z,11.25
2023-04-28T06:44:19.238Z,11.31
2023-04-28T06:46:46.956Z,11.09
2023-04-28T06:49:14.459Z,11.39
2023-04-28T06:51:43.260Z,11.79
2023-04-28T06:54:11.589Z,11.87
2023-04-28T06:56:39.134Z,11.91
2023-04-28T06:59:07.182Z,11.95
2023-04-28T07:01:34.642Z,12.15
2023-04-28T07:04:02.250Z,11.55
2023-04-28T07:06:31.707Z,11.28
2023-04-28T07:09:00.562Z,11.31
2023-04-28T07:11:28.146Z,11.22
2023-04-28T07:13:55.599Z,11.04
2023-04-28T07:16:23.116Z,10.94
2023-04-28T07:18:50.744Z,10.88
2023-04-28T07:21:18.216Z,11.16
2023-04-28T07:23:45.970Z,11.25
2023-04-28T07:26:16.343Z,11.22
2023-04-28T07:28:44.822Z,11.08
2023-04-28T07:31:12.394Z,10.96
2023-04-28T07:33:40.062Z,10.98
2023-04-28T07:36:08.225Z,10.99
2023-04-28T07:38:36.459Z,10.95
2023-04-28T07:41:05.748Z,11.00
2023-04-28T07:43:36.364Z,10.66
2023-04-28T07:46:03.921Z,10.38
2023-04-28T07:48:32.399Z,10.43
2023-04-28T07:50:59.876Z,10.68
2023-04-28T07:53:27.656Z,10.37
2023-04-28T07:55:55.480Z,10.40
2023-04-28T07:58:22.996Z,10.37
2023-04-28T08:00:51.786Z,10.18
2023-04-28T08:03:19.439Z,10.05
2023-04-28T08:05:47.247Z,10.10
2023-04-28T08:08:14.786Z,10.26
2023-04-28T08:10:43.751Z,10.36
2023-04-28T08:13:11.211Z,10.54
2023-04-28T08:15:38.739Z,10.55
2023-04-28T08:18:08.407Z,10.85
2023-04-28T08:20:36.065Z,10.75
2023-04-28T08:23:03.523Z,10.81
2023-04-28T08:25:31.008Z,10.97
2023-04-28T08:27:58.689Z,10.61
2023-04-28T08:30:26.204Z,10.55
2023-04-28T08:32:54.093Z,10.62
2023-04-28T08:35:23.042Z,10.52
2023-04-28T08:37:50.723Z,10.62
2023-04-28T08:40:18.348Z,10.77
2023-04-28T08:42:46.225Z,10.73
2023-04-28T08:45:15.628Z,10.66
2023-04-28T08:47:45.991Z,10.79
2023-04-28T08:50:14.678Z,11.10
2023-04-28T08:52:43.691Z,11.57
2023-04-28T08:55:13.759Z,11.30
2023-04-28T08:57:45.447Z,11.02
2023-04-28T09:00:13.816Z,11.00
2023-04-28T09:02:42.949Z,11.29
2023-04-28T09:05:11.930Z,11.20
2023-04-28T09:07:39.781Z,11.31
2023-04-28T09:10:27.466Z,11.17
2023-04-28T09:12:57.379Z,10.99
2023-04-28T09:15:31.831Z,10.99
2023-04-28T09:18:02.337Z,10.93
2023-04-28T09:20:31.445Z,11.02
2023-04-28T09:23:14.308Z,11.18
2023-04-28T09:25:57.012Z,11.09
2023-04-28T09:28:24.727Z,11.13
2023-04-28T09:30:52.388Z,11.23
2023-04-28T09:33:20.887Z,11.22
2023-04-28T09:35:48.928Z,11.66
2023-04-28T09:38:16.875Z,11.63
2023-04-28T09:40:53.383Z,11.39
2023-04-28T09:43:28.996Z,11.24
2023-04-28T09:45:57.750Z,11.10
2023-04-28T09:48:33.750Z,10.96
2023-04-28T09:51:02.888Z,10.91
2023-04-28T09:53:31.461Z,10.85
2023-04-28T09:56:02.391Z,10.98
2023-04-28T09:58:30.679Z,11.14
2023-04-28T10:00:59.728Z,11.22
2023-04-28T10:03:29.860Z,11.62
2023-04-28T10:05:58.855Z,11.62
2023-04-28T10:08:28.067Z,11.63
2023-04-28T10:10:56.926Z,12.02
2023-04-28T10:13:26.491Z,11.95
2023-04-28T10:15:55.357Z,11.79
2023-04-28T10:18:24.469Z,11.72
2023-04-28T10:20:57.489Z,11.41
2023-04-28T10:24:09.209Z,11.33
2023-04-28T10:27:09.215Z,11.10
2023-04-28T10:29:38.276Z,11.15
2023-04-28T10:32:26.061Z,11.26
2023-04-28T10:35:14.984Z,11.39
2023-04-28T10:38:06.189Z,11.25
2023-04-28T10:40:34.644Z,11.10
2023-04-28T10:43:02.838Z,11.18
2023-04-28T10:46:02.748Z,11.15
2023-04-28T10:49:03.310Z,11.03
2023-04-28T10:51:31.901Z,11.12
2023-04-28T10:54:11.131Z,11.42
2023-04-28T10:56:39.982Z,11.47
2023-04-28T10:59:28.128Z,11.22
2023-04-28T11:01:55.700Z,11.08
2023-04-28T11:04:24.437Z,11.30
2023-04-28T11:07:10.524Z,11.29
2023-04-28T11:09:53.123Z,11.49
2023-04-28T11:12:20.593Z,11.40
2023-04-28T11:14:48.066Z,11.86
2023-04-28T11:17:18.607Z,11.63
2023-04-28T11:19:48.601Z,11.75
2023-04-28T11:22:21.140Z,11.75
2023-04-28T11:25:00.798Z,11.86
2023-04-28T11:27:29.903Z,11.85
2023-04-28T11:29:57.527Z,11.91
2023-04-28T11:32:29.292Z,11.84
2023-04-28T11:34:56.921Z,12.20
2023-04-28T11:37:24.401Z,12.29
2023-04-28T11:39:51.916Z,12.82
2023-04-28T11:42:20.753Z,13.34
2023-04-28T11:44:53.113Z,12.93
2023-04-28T11:47:31.079Z,12.43
2023-04-28T11:49:58.824Z,12.10
2023-04-28T11:52:27.388Z,12.12
2023-04-28T11:54:56.521Z,12.25
2023-04-28T11:57:25.792Z,12.34
2023-04-28T11:59:53.438Z,12.45
2023-04-28T12:02:29.117Z,12.85
2023-04-28T12:04:57.530Z,13.24
2023-04-28T12:07:25.134Z,13.78
2023-04-28T12:10:11.728Z,13.70
2023-04-28T12:12:51.083Z,13.78
2023-04-28T12:15:21.857Z,14.08
2023-04-28T12:17:50.732Z,14.32
2023-04-28T12:20:37.528Z,14.37
2023-04-28T12:23:05.571Z,14.31
2023-04-28T12:25:33.958Z,14.31
2023-04-28T12:28:04.530Z,14.22
2023-04-28T12:30:33.780Z,14.56
2023-04-28T12:33:01.720Z,14.41
2023-04-28T12:35:30.214Z,14.79
2023-04-28T12:37:58.493Z,14.72
2023-04-28T12:40:26.085Z,14.83
2023-04-28T12:42:53.707Z,15.25
2023-04-28T12:45:22.469Z,15.37
2023-04-28T12:47:49.989Z,15.03
2023-04-28T12:50:17.484Z,14.83
2023-04-28T12:52:44.949Z,14.70
2023-04-28T12:55:12.400Z,14.61
2023-04-28T12:57:39.966Z,14.71
2023-04-28T13:00:09.300Z,14.75
2023-04-28T13:02:38.265Z,14.82
2023-04-28T13:05:07.230Z,14.72
2023-04-28T13:07:35.062Z,14.86
2023-04-28T13:10:02.575Z,14.83
2023-04-28T13:12:30.077Z,14.72
2023-04-28T13:14:57.565Z,14.69
2023-04-28T13:17:25.108Z,14.77
2023-04-28T13:19:54.193Z,14.75
2023-04-28T13:22:21.916Z,14.86
2023-04-28T13:24:49.401Z,14.85
2023-04-28T13:27:16.848Z,14.96
2023-04-28T13:29:44.281Z,14.86
2023-04-28T13:32:11.807Z,14.83
2023-04-28T13:34:39.939Z,14.70
2023-04-28T13:37:08.758Z,14.66
2023-04-28T13:39:36.202Z,14.80
2023-04-28T13:42:03.792Z,15.10
2023-04-28T13:44:31.319Z,15.30
2023-04-28T13:46:59.251Z,15.20
2023-04-28T13:49:26.699Z,14.85
2023-04-28T13:51:54.179Z,15.25
2023-04-28T13:54:23.028Z,15.41
2023-04-28T13:56:50.656Z,15.28
2023-04-28T13:59:19.211Z,15.29
2023-04-28T14:01:46.695Z,15.49
2023-04-28T14:04:14.446Z,15.80
2023-04-28T14:06:42.178Z,15.68
2023-04-28T14:09:09.806Z,15.99
2023-04-28T14:11:38.600Z,15.78
2023-04-28T14:14:06.254Z,15.62
2023-04-28T14:16:33.771Z,16.02
2023-04-28T14:19:01.697Z,16.01
2023-04-28T14:21:29.164Z,15.85
2023-04-28T14:23:56.636Z,15.90
2023-04-28T14:26:25.180Z,15.83
2023-04-28T14:28:54.921Z,16.20
2023-04-28T14:31:22.396Z,16.11
2023-04-28T14:33:49.940Z,16.31
2023-04-28T14:36:17.400Z,16.33
2023-04-28T14:38:44.866Z,16.36
2023-04-28T14:41:12.613Z,16.34
2023-04-28T14:43:40.095Z,16.49
2023-04-28T14:46:09.094Z,16.46
2023-04-28T14:48:37.643Z,16.46
2023-04-28T14:51:05.711Z,16.35
2023-04-28T14:53:33.211Z,16.17
2023-04-28T14:56:16.804Z,16.26
2023-04-28T14:58:45.890Z,15.97
2023-04-28T15:01:14.832Z,15.77
2023-04-28T15:03:42.610Z,15.54
2023-04-28T15:06:10.649Z,15.44
2023-04-28T15:08:38.139Z,15.39
2023-04-28T15:11:05.561Z,15.51
2023-04-28T15:13:33.174Z,15.30
2023-04-28T15:16:00.616Z,15.35
2023-04-28T15:18:29.511Z,15.28
2023-04-28T15:20:56.977Z,14.98
2023-04-28T15:23:24.419Z,14.91
2023-04-28T15:25:53.551Z,14.66
2023-04-28T15:28:22.048Z,14.59
2023-04-28T15:30:49.530Z,14.60
2023-04-28T15:33:18.518Z,14.47
2023-04-28T15:35:47.452Z,14.42
2023-04-28T15:38:14.946Z,14.59
2023-04-28T15:40:43.483Z,14.41
2023-04-28T15:43:11.058Z,14.20
2023-04-28T15:45:39.677Z,14.30
2023-04-28T15:48:07.573Z,14.31
2023-04-28T15:50:36.879Z,14.35
2023-04-28T15:53:05.697Z,14.39
2023-04-28T15:55:33.313Z,14.50
2023-04-28T15:58:01.248Z,14.29
2023-04-28T16:00:28.833Z,14.22
2023-04-28T16:02:56.610Z,14.17
2023-04-28T16:05:24.179Z,14.34
2023-04-28T16:07:52.765Z,14.48
2023-04-28T16:10:21.978Z,14.30
2023-04-28T16:12:49.529Z,14.68
2023-04-28T16:15:17.289Z,14.61
2023-04-28T16:17:44.999Z,14.79
2023-04-28T16:20:13.053Z,14.85
2023-04-28T16:22:41.612Z,14.73
2023-04-28T16:25:10.430Z,15.18
2023-04-28T16:27:40.011Z,15.08
2023-04-28T16:30:08.743Z,15.22
2023-04-28T16:32:38.215Z,15.75
2023-04-28T16:35:06.417Z,15.96
2023-04-28T16:37:36.242Z,16.07
2023-04-28T16:40:04.480Z,16.15
2023-04-28T16:42:32.137Z,15.94
2023-04-28T16:45:00.926Z,16.10
2023-04-28T16:47:31.098Z,16.15
2023-04-28T16:49:58.729Z,15.69
2023-04-28T16:52:27.173Z,15.16
2023-04-28T16:54:55.051Z,14.92
2023-04-28T16:57:22.681Z,15.12
2023-04-28T16:59:50.850Z,15.36
2023-04-28T17:02:19.962Z,15.65
2023-04-28T17:04:47.513Z,15.64
2023-04-28T17:07:15.112Z,15.62
2023-04-28T17:09:42.554Z,15.71
2023-04-28T17:12:10.009Z,15.35
2023-04-28T17:14:38.896Z,15.30
2023-04-28T17:17:06.529Z,15.37
2023-04-28T17:19:35.377Z,15.49
2023-04-28T17:22:03.770Z,15.50
2023-04-28T17:24:31.218Z,15.66
2023-04-28T17:26:58.840Z,15.33
2023-04-28T17:29:26.709Z,14.83
2023-04-28T17:31:54.443Z,14.97
2023-04-28T17:34:22.167Z,15.04
2023-04-28T17:36:51.121Z,14.89
2023-04-28T17:39:19.176Z,14.87
2023-04-28T17:41:47.301Z,15.27
2023-04-28T17:44:14.751Z,15.37
2023-04-28T17:46:42.233Z,15.38
2023-04-28T17:49:09.712Z,15.33
2023-04-28T17:51:37.968Z,15.07
2023-04-28T17:54:09.362Z,15.12
2023-04-28T17:56:37.745Z,15.08
2023-04-28T17:59:05.886Z,14.91
2023-04-28T18:01:33.983Z,14.55
2023-04-28T18:04:01.645Z,14.69
2023-04-28T18:06:29.896Z,14.73
2023-04-28T18:08:57.408Z,15.30
2023-04-28T18:11:27.837Z,14.88
2023-04-28T18:13:55.336Z,14.07
2023-04-28T18:16:22.855Z,14.36
2023-04-28T18:18:50.679Z,14.69
2023-04-28T18:21:18.270Z,14.77
2023-04-28T18:23:46.525Z,14.81
2023-04-28T18:26:14.003Z,14.10
2023-04-28T18:28:42.927Z,14.88
2023-04-28T18:31:10.438Z,14.88
2023-04-28T18:33:37.923Z,14.78
2023-04-28T18:36:07.356Z,14.64
2023-04-28T18:38:36.482Z,14.96
2023-04-28T18:41:14.766Z,14.98
2023-04-28T18:43:44.784Z,14.78
2023-04-28T18:46:12.292Z,14.60
2023-04-28T18:48:40.022Z,14.59
2023-04-28T18:51:07.700Z,14.28
2023-04-28T18:53:36.821Z,14.51
2023-04-28T18:56:04.784Z,14.69
2023-04-28T18:58:32.690Z,14.80
2023-04-28T19:01:01.558Z,15.07
2023-04-28T19:03:30.259Z,15.26
2023-04-28T19:05:57.827Z,15.37
2023-04-28T19:08:25.263Z,15.54
2023-04-28T19:10:52.725Z,15.72
2023-04-28T19:13:20.185Z,15.54
2023-04-28T19:15:47.717Z,15.55
2023-04-28T19:18:16.563Z,15.45
2023-04-28T19:20:44.016Z,15.32
2023-04-28T19:23:11.613Z,15.43
2023-04-28T19:25:39.260Z,15.46
2023-04-28T19:28:06.813Z,15.34
2023-04-28T19:30:34.350Z,15.39
2023-04-28T19:33:01.969Z,15.04
2023-04-28T19:35:30.777Z,15.06
2023-04-28T19:37:58.225Z,15.43
2023-04-28T19:40:26.301Z,15.27
2023-04-28T19:42:55.429Z,15.22
2023-04-28T19:45:23.167Z,14.79
2023-04-28T19:47:51.811Z,14.48
2023-04-28T19:50:19.672Z,14.49
2023-04-28T19:52:48.472Z,14.74
2023-04-28T19:55:19.925Z,14.68
2023-04-28T19:57:47.495Z,14.49
2023-04-28T20:00:15.340Z,14.46
2023-04-28T20:02:44.311Z,14.25
2023-04-28T20:05:12.234Z,14.14
2023-04-28T20:07:39.754Z,14.21
2023-04-28T20:10:09.542Z,14.39
2023-04-28T20:12:37.017Z,14.26
2023-04-28T20:15:04.969Z,14.17
2023-04-28T20:17:32.492Z,13.80
2023-04-28T20:20:00.208Z,13.92
2023-04-28T20:22:27.777Z,14.03
2023-04-28T20:24:56.285Z,13.70
2023-04-28T20:27:25.064Z,13.44
2023-04-28T20:29:52.636Z,13.39
2023-04-28T20:32:20.632Z,12.94
2023-04-28T20:34:48.098Z,12.78
2023-04-28T20:37:15.550Z,12.82
2023-04-28T20:39:42.983Z,12.85
2023-04-28T20:42:10.657Z,12.66
2023-04-28T20:44:40.883Z,12.71
2023-04-28T20:47:08.399Z,12.82
2023-04-28T20:49:36.085Z,12.48
2023-04-28T20:52:04.755Z,12.57
2023-04-28T20:54:33.511Z,12.49
2023-04-28T20:57:01.712Z,12.17
2023-04-28T20:59:32.198Z,12.23
2023-04-28T21:02:01.361Z,12.26
2023-04-28T21:04:28.902Z,12.43
2023-04-28T21:06:56.432Z,12.87
2023-04-28T21:09:24.938Z,13.06
2023-04-28T21:11:52.621Z,12.91
2023-04-28T21:14:20.310Z,12.96
2023-04-28T21:16:47.818Z,13.27
2023-04-28T21:19:17.304Z,12.96
2023-04-28T21:21:44.977Z,13.13
2023-04-28T21:24:12.607Z,13.16
2023-04-28T21:26:40.657Z,12.95
2023-04-28T21:29:09.229Z,12.83
2023-04-28T21:31:37.232Z,13.04
2023-04-28T21:34:04.783Z,12.96
2023-04-28T21:36:34.357Z,12.60
2023-04-28T21:39:01.842Z,12.55
2023-04-28T21:41:29.306Z,12.53
2023-04-28T21:43:56.779Z,12.76
2023-04-28T21:46:24.264Z,13.05
2023-04-28T21:48:51.715Z,12.77
2023-04-28T21:51:19.221Z,12.86
2023-04-28T21:53:48.033Z,12.68
2023-04-28T21:56:17.145Z,12.57
2023-04-28T21:58:44.998Z,12.34
2023-04-28T22:01:15.276Z,12.52
2023-04-28T22:03:42.945Z,12.56
2023-04-28T22:06:10.613Z,12.37
2023-04-28T22:08:38.341Z,12.26
2023-04-28T22:11:07.180Z,12.55
2023-04-28T22:13:34.875Z,12.65
2023-04-28T22:16:02.776Z,12.50
2023-04-28T22:18:30.422Z,12.32
2023-04-28T22:20:57.988Z,12.50
2023-04-28T22:23:25.871Z,12.32
2023-04-28T22:25:53.323Z,12.57
2023-04-28T22:28:22.571Z,12.61
2023-04-28T22:30:50.044Z,12.80
2023-04-28T22:33:17.534Z,12.37
2023-04-28T22:35:44.976Z,12.32
2023-04-28T22:38:12.455Z,12.29
2023-04-28T22:40:39.894Z,12.25
2023-04-28T22:43:07.350Z,12.27
2023-04-28T22:45:36.178Z,12.56
2023-04-28T22:48:03.878Z,12.79
2023-04-28T22:50:31.443Z,12.80
2023-04-28T22:52:58.907Z,12.90
2023-04-28T22:55:26.667Z,12.83
2023-04-28T22:57:54.122Z,12.61
2023-04-28T23:00:21.733Z,12.85
2023-04-28T23:02:50.628Z,12.77
2023-04-28T23:05:18.388Z,12.55
2023-04-28T23:07:45.936Z,12.64
2023-04-28T23:10:14.734Z,12.80
2023-04-28T23:12:42.276Z,12.74
2023-04-28T23:15:10.420Z,12.51
2023-04-28T23:17:37.947Z,12.56
2023-04-28T23:20:07.989Z,12.49
2023-04-28T23:22:35.430Z,12.87
2023-04-28T23:25:02.948Z,12.94
2023-04-28T23:27:30.379Z,13.32
2023-04-28T23:29:57.955Z,13.36
2023-04-28T23:32:25.538Z,13.39
2023-04-28T23:34:53.623Z,13.47
2023-04-28T23:37:22.456Z,13.52
2023-04-28T23:39:50.156Z,13.68
2023-04-28T23:42:17.870Z,13.38
2023-04-28T23:44:45.310Z,13.83
2023-04-28T23:47:13.815Z,13.78
2023-04-28T23:49:41.261Z,13.84
2023-04-28T23:52:08.694Z,14.02
2023-04-28T23:54:37.509Z,13.89
2023-04-28T23:57:05.265Z,14.26
2023-04-28T23:59:32.726Z,14.38
